createdAt,value
2019-02-16T00:00:00.705Z,97.21
2019-02-16T00:01:00.622Z,97.50
2019-02-16T00:02:00.539Z,97.69
2019-02-16T00:03:00.458Z,97.59
2019-02-16T00:04:00.376Z,98.25
2019-02-16T00:05:00.316Z,97.97
2019-02-16T00:06:00.213Z,97.59
2019-02-16T00:07:00.128Z,97.69
2019-02-16T00:08:00.046Z,97.21
2019-02-16T00:08:59.964Z,97.31
2019-02-16T00:09:59.883Z,96.83
2019-02-16T00:10:59.799Z,97.31
2019-02-16T00:11:59.718Z,96.73
2019-02-16T00:12:59.641Z,97.31
2019-02-16T00:13:59.555Z,97.12
2019-02-16T00:14:59.470Z,96.92
2019-02-16T00:15:59.390Z,97.02
2019-02-16T00:16:59.307Z,97.12
2019-02-16T00:17:59.224Z,96.92
2019-02-16T00:18:59.141Z,97.59
2019-02-16T00:19:59.059Z,97.69
2019-02-16T00:21:04.065Z,97.50
2019-02-16T00:21:58.894Z,98.49
2019-02-16T00:22:58.813Z,98.21
2019-02-16T00:23:58.731Z,98.68
2019-02-16T00:24:58.649Z,98.87
2019-02-16T00:25:58.566Z,98.96
2019-02-16T00:26:58.485Z,98.68
2019-02-16T00:27:58.403Z,98.77
2019-02-16T00:28:58.321Z,99.06
2019-02-16T00:29:58.238Z,98.77
2019-02-16T00:30:58.158Z,98.87
2019-02-16T00:31:58.074Z,98.68
2019-02-16T00:32:57.996Z,98.87
2019-02-16T00:33:57.930Z,98.68
2019-02-16T00:34:57.828Z,98.77
2019-02-16T00:35:58.097Z,98.39
2019-02-16T00:36:57.664Z,99.06
2019-02-16T00:37:57.581Z,97.83
2019-02-16T00:38:57.500Z,98.39
2019-02-16T00:39:57.418Z,97.73
2019-02-16T00:40:57.337Z,97.83
2019-02-16T00:41:57.254Z,98.30
2019-02-16T00:42:57.173Z,98.68
2019-02-16T00:43:57.090Z,98.68
2019-02-16T00:44:57.009Z,98.77
2019-02-16T00:45:56.925Z,98.68
2019-02-16T00:46:56.842Z,98.87
2019-02-16T00:47:56.763Z,98.30
2019-02-16T00:48:56.681Z,97.73
2019-02-16T00:49:56.599Z,98.25
2019-02-16T00:50:56.515Z,97.69
2019-02-16T00:51:56.433Z,97.64
2019-02-16T00:52:56.350Z,97.45
2019-02-16T00:53:56.268Z,96.92
2019-02-16T00:54:56.186Z,96.55
2019-02-16T00:55:56.104Z,97.35
2019-02-16T00:56:56.022Z,98.11
2019-02-16T00:57:55.941Z,97.92
2019-02-16T00:58:55.858Z,99.06
2019-02-16T00:59:55.776Z,98.49
2019-02-16T01:00:55.693Z,98.58
2019-02-16T01:01:55.609Z,99.44
2019-02-16T01:02:55.527Z,99.34
2019-02-16T01:03:55.449Z,99.72
2019-02-16T01:04:55.363Z,99.99
2019-02-16T01:05:55.280Z,99.72
2019-02-16T01:06:55.198Z,99.82
2019-02-16T01:07:55.116Z,99.82
2019-02-16T01:08:55.034Z,99.99
2019-02-16T01:09:54.950Z,99.99
2019-02-16T01:10:54.868Z,99.99
2019-02-16T01:11:54.786Z,99.99
2019-02-16T01:12:54.707Z,99.99
2019-02-16T01:13:54.620Z,99.99
2019-02-16T01:14:54.540Z,99.99
2019-02-16T01:15:54.456Z,99.99
2019-02-16T01:16:54.374Z,99.99
2019-02-16T01:17:54.296Z,99.99
2019-02-16T01:18:54.207Z,99.99
2019-02-16T01:19:54.125Z,99.99
2019-02-16T01:20:54.042Z,99.99
2019-02-16T01:21:53.959Z,99.99
2019-02-16T01:22:53.875Z,99.99
2019-02-16T01:23:53.793Z,99.99
2019-02-16T01:24:53.713Z,99.99
2019-02-16T01:25:53.628Z,99.99
2019-02-16T01:26:53.544Z,99.99
2019-02-16T01:27:53.462Z,99.99
2019-02-16T01:28:53.379Z,99.99
2019-02-16T01:29:53.297Z,99.99
2019-02-16T01:30:53.212Z,99.99
2019-02-16T01:31:53.130Z,99.99
2019-02-16T01:32:53.046Z,99.99
2019-02-16T01:33:52.967Z,99.99
2019-02-16T01:34:52.885Z,99.99
2019-02-16T01:35:52.797Z,99.99
2019-02-16T01:36:52.715Z,99.99
2019-02-16T01:37:52.633Z,99.99
2019-02-16T01:38:52.548Z,99.99
2019-02-16T01:39:52.466Z,99.99
2019-02-16T01:40:52.382Z,99.99
2019-02-16T01:41:52.299Z,99.99
2019-02-16T01:42:52.215Z,99.99
2019-02-16T01:43:52.133Z,99.99
2019-02-16T01:44:52.049Z,99.99
2019-02-16T01:45:51.965Z,99.99
2019-02-16T01:46:51.882Z,99.99
2019-02-16T01:47:51.799Z,99.99
2019-02-16T01:48:51.716Z,99.99
2019-02-16T01:49:51.632Z,99.99
2019-02-16T01:50:51.548Z,99.99
2019-02-16T01:51:51.466Z,99.99
2019-02-16T01:52:51.382Z,99.99
2019-02-16T01:53:51.298Z,99.99
2019-02-16T01:54:51.214Z,99.99
2019-02-16T01:55:51.133Z,99.99
2019-02-16T01:56:51.050Z,99.99
2019-02-16T01:57:50.964Z,99.99
2019-02-16T01:58:50.880Z,99.99
2019-02-16T01:59:50.798Z,99.99
2019-02-16T02:00:50.715Z,99.99
2019-02-16T02:01:50.632Z,99.99
2019-02-16T02:02:50.548Z,99.99
2019-02-16T02:03:50.467Z,99.99
2019-02-16T02:04:50.382Z,99.99
2019-02-16T02:05:50.297Z,99.99
2019-02-16T02:06:50.564Z,99.99
2019-02-16T02:07:50.131Z,99.99
2019-02-16T02:08:50.050Z,99.99
2019-02-16T02:09:49.963Z,99.99
2019-02-16T02:10:49.880Z,99.99
2019-02-16T02:11:49.798Z,99.99
2019-02-16T02:12:49.713Z,99.99
2019-02-16T02:13:49.630Z,99.99
2019-02-16T02:14:49.547Z,99.99
2019-02-16T02:15:49.465Z,99.99
2019-02-16T02:16:49.382Z,99.99
2019-02-16T02:17:49.297Z,99.99
2019-02-16T02:18:49.217Z,99.99
2019-02-16T02:19:49.131Z,99.99
2019-02-16T02:20:49.048Z,99.99
2019-02-16T02:21:48.968Z,99.99
2019-02-16T02:22:48.905Z,99.99
2019-02-16T02:23:48.797Z,99.99
2019-02-16T02:24:48.714Z,99.99
2019-02-16T02:25:48.631Z,99.99
2019-02-16T02:26:48.602Z,99.99
2019-02-16T02:27:48.466Z,99.99
2019-02-16T02:28:48.382Z,99.99
2019-02-16T02:29:48.297Z,99.99
2019-02-16T02:30:48.215Z,99.99
2019-02-16T02:31:48.232Z,99.99
2019-02-16T02:32:48.049Z,99.99
2019-02-16T02:33:47.967Z,99.99
2019-02-16T02:34:47.882Z,99.99
2019-02-16T02:35:48.057Z,99.99
2019-02-16T02:36:47.717Z,99.99
2019-02-16T02:37:47.633Z,99.99
2019-02-16T02:38:47.549Z,99.99
2019-02-16T02:39:47.464Z,99.99
2019-02-16T02:40:47.381Z,99.99
2019-02-16T02:41:47.403Z,99.99
2019-02-16T02:42:47.214Z,99.99
2019-02-16T02:43:47.139Z,99.99
2019-02-16T02:44:47.047Z,99.99
2019-02-16T02:45:47.102Z,99.99
2019-02-16T02:46:46.883Z,99.99
2019-02-16T02:47:47.076Z,99.99
2019-02-16T02:48:46.715Z,99.99
2019-02-16T02:49:46.629Z,99.99
2019-02-16T02:50:46.550Z,99.99
2019-02-16T02:51:52.345Z,99.99
2019-02-16T02:52:46.383Z,99.99
2019-02-16T02:53:46.300Z,99.99
2019-02-16T02:54:46.213Z,99.99
2019-02-16T02:55:46.133Z,99.99
2019-02-16T02:56:46.046Z,99.99
2019-02-16T02:57:45.961Z,99.99
2019-02-16T02:58:45.877Z,99.99
2019-02-16T02:59:45.796Z,99.99
2019-02-16T03:00:45.711Z,99.99
2019-02-16T03:01:45.627Z,99.99
2019-02-16T03:02:45.543Z,99.99
2019-02-16T03:03:45.458Z,99.99
2019-02-16T03:04:45.376Z,99.99
2019-02-16T03:05:45.292Z,99.99
2019-02-16T03:06:45.209Z,99.99
2019-02-16T03:07:45.225Z,99.99
2019-02-16T03:08:45.050Z,99.99
2019-02-16T03:09:44.955Z,99.99
2019-02-16T03:10:44.873Z,99.99
2019-02-16T03:11:44.787Z,99.99
2019-02-16T03:12:44.705Z,99.99
2019-02-16T03:13:44.620Z,99.99
2019-02-16T03:14:44.539Z,99.99
2019-02-16T03:15:44.453Z,99.99
2019-02-16T03:16:44.370Z,99.99
2019-02-16T03:17:44.286Z,99.99
2019-02-16T03:18:44.202Z,99.99
2019-02-16T03:19:44.117Z,99.99
2019-02-16T03:20:44.034Z,99.99
2019-02-16T03:21:43.950Z,99.99
2019-02-16T03:22:43.866Z,99.99
2019-02-16T03:23:43.783Z,99.99
2019-02-16T03:24:43.700Z,99.99
2019-02-16T03:25:43.614Z,99.99
2019-02-16T03:26:43.533Z,99.99
2019-02-16T03:27:43.448Z,99.99
2019-02-16T03:28:43.462Z,99.99
2019-02-16T03:29:43.282Z,99.99
2019-02-16T03:30:43.214Z,99.99
2019-02-16T03:31:43.112Z,99.99
2019-02-16T03:32:43.028Z,99.99
2019-02-16T03:33:42.953Z,99.99
2019-02-16T03:34:42.858Z,99.99
2019-02-16T03:35:42.778Z,99.99
2019-02-16T03:36:42.691Z,99.99
2019-02-16T03:37:42.607Z,99.99
2019-02-16T03:38:42.524Z,99.99
2019-02-16T03:39:42.442Z,99.99
2019-02-16T03:40:42.358Z,99.99
2019-02-16T03:41:42.270Z,99.99
2019-02-16T03:42:42.187Z,99.99
2019-02-16T03:43:42.208Z,99.99
2019-02-16T03:44:42.027Z,99.99
2019-02-16T03:45:41.935Z,99.99
2019-02-16T03:46:41.861Z,99.99
2019-02-16T03:47:41.767Z,99.99
2019-02-16T03:48:41.706Z,99.99
2019-02-16T03:49:41.600Z,99.99
2019-02-16T03:50:41.516Z,99.99
2019-02-16T03:51:41.432Z,99.99
2019-02-16T03:52:41.347Z,99.99
2019-02-16T03:53:41.272Z,99.99
2019-02-16T03:54:41.180Z,99.99
2019-02-16T03:55:41.101Z,99.99
2019-02-16T03:56:41.015Z,99.99
2019-02-16T03:57:40.927Z,99.99
2019-02-16T03:58:40.843Z,99.99
2019-02-16T03:59:40.761Z,99.99
2019-02-16T04:00:40.678Z,99.99
2019-02-16T04:01:40.592Z,99.99
2019-02-16T04:02:40.508Z,99.99
2019-02-16T04:03:40.428Z,99.99
2019-02-16T04:04:40.343Z,99.99
2019-02-16T04:05:40.258Z,99.99
2019-02-16T04:06:40.173Z,99.99
2019-02-16T04:07:40.093Z,99.99
2019-02-16T04:08:40.006Z,99.99
2019-02-16T04:09:39.921Z,99.99
2019-02-16T04:10:39.838Z,99.99
2019-02-16T04:11:39.758Z,99.99
2019-02-16T04:12:39.672Z,99.99
2019-02-16T04:13:39.686Z,99.99
2019-02-16T04:14:39.503Z,99.99
2019-02-16T04:15:39.418Z,99.99
2019-02-16T04:16:39.372Z,99.99
2019-02-16T04:17:39.250Z,99.99
2019-02-16T04:18:39.168Z,99.99
2019-02-16T04:19:39.083Z,99.99
2019-02-16T04:20:39.009Z,99.99
2019-02-16T04:21:38.917Z,99.99
2019-02-16T04:22:38.835Z,99.99
2019-02-16T04:23:38.748Z,99.99
2019-02-16T04:24:38.664Z,99.99
2019-02-16T04:25:38.579Z,99.99
2019-02-16T04:26:40.590Z,99.99
2019-02-16T04:27:38.411Z,99.99
2019-02-16T04:28:38.328Z,99.99
2019-02-16T04:29:38.243Z,99.99
2019-02-16T04:30:38.159Z,99.99
2019-02-16T04:31:38.078Z,99.99
2019-02-16T04:32:37.990Z,99.99
2019-02-16T04:33:37.906Z,99.99
2019-02-16T04:34:37.823Z,99.99
2019-02-16T04:35:37.740Z,99.99
2019-02-16T04:36:37.656Z,99.99
2019-02-16T04:37:37.570Z,99.99
2019-02-16T04:38:37.483Z,99.99
2019-02-16T04:39:37.401Z,99.99
2019-02-16T04:40:37.316Z,99.99
2019-02-16T04:41:37.231Z,99.99
2019-02-16T04:42:37.148Z,99.99
2019-02-16T04:43:37.068Z,99.99
2019-02-16T04:44:37.079Z,99.99
2019-02-16T04:45:36.897Z,99.99
2019-02-16T04:46:36.811Z,99.99
2019-02-16T04:47:36.724Z,99.99
2019-02-16T04:48:36.640Z,99.99
2019-02-16T04:49:36.559Z,99.99
2019-02-16T04:50:36.473Z,99.99
2019-02-16T04:51:36.387Z,99.99
2019-02-16T04:52:36.304Z,99.99
2019-02-16T04:53:36.218Z,99.99
2019-02-16T04:54:36.133Z,99.99
2019-02-16T04:55:36.048Z,99.99
2019-02-16T04:56:35.966Z,99.99
2019-02-16T04:57:35.880Z,99.99
2019-02-16T04:58:35.799Z,99.99
2019-02-16T04:59:35.711Z,99.99
2019-02-16T05:00:35.627Z,99.99
2019-02-16T05:01:35.543Z,99.99
2019-02-16T05:02:35.457Z,99.99
2019-02-16T05:03:35.375Z,99.99
2019-02-16T05:04:35.292Z,99.99
2019-02-16T05:05:35.204Z,99.99
2019-02-16T05:06:35.122Z,99.99
2019-02-16T05:07:35.040Z,99.99
2019-02-16T05:08:34.950Z,99.99
2019-02-16T05:09:34.864Z,99.99
2019-02-16T05:10:34.779Z,99.99
2019-02-16T05:11:34.695Z,99.99
2019-02-16T05:12:34.611Z,99.99
2019-02-16T05:13:34.525Z,99.99
2019-02-16T05:14:34.441Z,99.99
2019-02-16T05:15:34.357Z,99.99
2019-02-16T05:16:34.274Z,99.99
2019-02-16T05:17:34.187Z,99.99
2019-02-16T05:18:34.104Z,99.99
2019-02-16T05:19:34.017Z,99.99
2019-02-16T05:20:33.944Z,99.99
2019-02-16T05:21:33.848Z,99.99
2019-02-16T05:22:33.764Z,99.99
2019-02-16T05:23:33.681Z,99.99
2019-02-16T05:24:33.594Z,99.99
2019-02-16T05:25:33.511Z,99.99
2019-02-16T05:26:33.580Z,99.99
2019-02-16T05:27:33.344Z,99.99
2019-02-16T05:28:33.256Z,99.99
2019-02-16T05:29:33.171Z,99.99
2019-02-16T05:30:33.087Z,99.99
2019-02-16T05:31:33.156Z,99.99
2019-02-16T05:32:32.927Z,99.99
2019-02-16T05:33:32.837Z,99.99
2019-02-16T05:34:32.751Z,99.99
2019-02-16T05:35:32.671Z,99.99
2019-02-16T05:36:32.584Z,99.99
2019-02-16T05:37:32.497Z,99.99
2019-02-16T05:38:32.412Z,99.99
2019-02-16T05:39:32.330Z,99.99
2019-02-16T05:40:32.244Z,99.99
2019-02-16T05:41:32.159Z,99.99
2019-02-16T05:42:32.074Z,99.99
2019-02-16T05:43:31.989Z,99.99
2019-02-16T05:44:31.906Z,99.99
2019-02-16T05:45:31.821Z,99.99
2019-02-16T05:46:31.738Z,99.99
2019-02-16T05:47:31.654Z,99.99
2019-02-16T05:48:31.567Z,99.99
2019-02-16T05:49:31.482Z,99.99
2019-02-16T05:50:31.398Z,99.99
2019-02-16T05:51:31.318Z,99.99
2019-02-16T05:52:31.231Z,99.99
2019-02-16T05:53:31.147Z,99.99
2019-02-16T05:54:31.126Z,99.99
2019-02-16T05:55:30.976Z,99.99
2019-02-16T05:56:30.891Z,99.99
2019-02-16T05:57:30.805Z,99.99
2019-02-16T05:58:30.721Z,99.99
2019-02-16T05:59:30.637Z,99.99
2019-02-16T06:00:30.553Z,99.99
2019-02-16T06:01:30.467Z,99.99
2019-02-16T06:02:30.383Z,99.99
2019-02-16T06:03:30.300Z,99.99
2019-02-16T06:04:30.217Z,99.99
2019-02-16T06:05:30.129Z,99.99
2019-02-16T06:06:30.047Z,99.99
2019-02-16T06:07:29.960Z,99.99
2019-02-16T06:08:29.881Z,99.99
2019-02-16T06:09:29.791Z,99.99
2019-02-16T06:10:29.721Z,99.99
2019-02-16T06:11:29.622Z,99.99
2019-02-16T06:12:29.537Z,99.99
2019-02-16T06:13:29.457Z,99.99
2019-02-16T06:14:29.367Z,99.99
2019-02-16T06:15:29.283Z,99.99
2019-02-16T06:16:29.201Z,99.99
2019-02-16T06:17:29.114Z,99.99
2019-02-16T06:18:29.028Z,99.99
2019-02-16T06:19:28.945Z,99.99
2019-02-16T06:20:28.861Z,99.99
2019-02-16T06:21:28.778Z,99.99
2019-02-16T06:22:28.747Z,99.99
2019-02-16T06:23:28.609Z,99.99
2019-02-16T06:24:28.522Z,99.99
2019-02-16T06:25:28.437Z,99.99
2019-02-16T06:26:28.352Z,99.99
2019-02-16T06:27:28.270Z,99.99
2019-02-16T06:28:28.186Z,99.99
2019-02-16T06:29:28.104Z,99.99
2019-02-16T06:30:28.013Z,99.99
2019-02-16T06:31:27.932Z,99.99
2019-02-16T06:32:27.845Z,99.99
2019-02-16T06:33:27.760Z,99.99
2019-02-16T06:34:27.676Z,99.99
2019-02-16T06:35:27.592Z,99.99
2019-02-16T06:36:27.508Z,99.99
2019-02-16T06:37:27.425Z,99.99
2019-02-16T06:38:27.339Z,99.99
2019-02-16T06:39:27.262Z,99.99
2019-02-16T06:40:27.171Z,99.99
2019-02-16T06:41:27.087Z,99.99
2019-02-16T06:42:27.001Z,99.99
2019-02-16T06:43:26.918Z,99.99
2019-02-16T06:44:26.834Z,99.99
2019-02-16T06:45:26.752Z,99.99
2019-02-16T06:46:26.669Z,99.99
2019-02-16T06:47:26.583Z,99.99
2019-02-16T06:48:26.496Z,99.99
2019-02-16T06:49:26.409Z,99.99
2019-02-16T06:50:26.325Z,99.99
2019-02-16T06:51:26.241Z,99.99
2019-02-16T06:52:26.158Z,99.99
2019-02-16T06:53:26.071Z,99.99
2019-02-16T06:54:25.987Z,99.99
2019-02-16T06:55:25.903Z,99.99
2019-02-16T06:56:25.820Z,99.99
2019-02-16T06:57:25.734Z,99.99
2019-02-16T06:58:25.650Z,99.99
2019-02-16T06:59:25.567Z,99.99
2019-02-16T07:00:25.483Z,99.99
2019-02-16T07:01:25.395Z,99.99
2019-02-16T07:02:25.313Z,99.99
2019-02-16T07:03:25.227Z,99.99
2019-02-16T07:04:25.149Z,99.99
2019-02-16T07:05:25.058Z,99.99
2019-02-16T07:06:24.975Z,99.99
2019-02-16T07:07:24.890Z,99.99
2019-02-16T07:08:24.866Z,99.99
2019-02-16T07:09:24.721Z,99.99
2019-02-16T07:10:24.650Z,99.99
2019-02-16T07:11:24.552Z,99.99
2019-02-16T07:12:24.467Z,99.99
2019-02-16T07:13:24.383Z,99.99
2019-02-16T07:14:24.297Z,99.99
2019-02-16T07:15:24.215Z,99.99
2019-02-16T07:16:24.129Z,99.99
2019-02-16T07:17:24.045Z,99.99
2019-02-16T07:18:23.960Z,99.99
2019-02-16T07:19:23.877Z,99.99
2019-02-16T07:20:23.794Z,99.99
2019-02-16T07:21:23.714Z,99.99
2019-02-16T07:22:23.625Z,99.99
2019-02-16T07:23:23.539Z,99.99
2019-02-16T07:24:23.463Z,99.99
2019-02-16T07:25:23.371Z,99.99
2019-02-16T07:26:23.288Z,99.99
2019-02-16T07:27:23.303Z,99.99
2019-02-16T07:28:23.118Z,99.99
2019-02-16T07:29:23.031Z,99.99
2019-02-16T07:30:22.949Z,99.99
2019-02-16T07:31:22.864Z,99.99
2019-02-16T07:32:22.780Z,99.99
2019-02-16T07:33:22.694Z,99.99
2019-02-16T07:34:22.610Z,99.99
2019-02-16T07:35:22.526Z,99.99
2019-02-16T07:36:22.452Z,99.99
2019-02-16T07:37:22.358Z,99.99
2019-02-16T07:38:22.272Z,99.99
2019-02-16T07:39:22.189Z,99.99
2019-02-16T07:40:22.105Z,99.99
2019-02-16T07:41:22.019Z,99.99
2019-02-16T07:42:21.937Z,99.99
2019-02-16T07:43:21.855Z,99.99
2019-02-16T07:44:21.768Z,99.99
2019-02-16T07:45:21.685Z,99.99
2019-02-16T07:46:21.599Z,99.99
2019-02-16T07:47:21.516Z,99.99
2019-02-16T07:48:21.430Z,99.99
2019-02-16T07:49:23.120Z,99.99
2019-02-16T07:50:21.262Z,99.99
2019-02-16T07:51:21.181Z,99.99
2019-02-16T07:52:21.095Z,99.99
2019-02-16T07:53:21.010Z,99.99
2019-02-16T07:54:20.927Z,99.99
2019-02-16T07:55:20.845Z,99.99
2019-02-16T07:56:20.759Z,99.99
2019-02-16T07:57:20.674Z,99.99
2019-02-16T07:58:20.590Z,99.99
2019-02-16T07:59:20.507Z,99.99
2019-02-16T08:00:20.424Z,99.99
2019-02-16T08:01:20.341Z,99.99
2019-02-16T08:02:20.255Z,99.99
2019-02-16T08:03:20.172Z,99.99
2019-02-16T08:04:20.090Z,99.99
2019-02-16T08:05:20.006Z,99.99
2019-02-16T08:06:19.919Z,99.99
2019-02-16T08:07:19.837Z,99.99
2019-02-16T08:08:19.754Z,99.99
2019-02-16T08:09:19.667Z,99.99
2019-02-16T08:10:19.588Z,99.99
2019-02-16T08:11:19.502Z,99.99
2019-02-16T08:12:19.418Z,99.99
2019-02-16T08:13:19.335Z,99.99
2019-02-16T08:14:19.252Z,99.99
2019-02-16T08:15:19.170Z,99.99
2019-02-16T08:16:19.086Z,99.99
2019-02-16T08:17:19.000Z,99.99
2019-02-16T08:18:18.917Z,99.99
2019-02-16T08:19:18.833Z,99.99
2019-02-16T08:20:18.751Z,99.99
2019-02-16T08:21:18.669Z,99.99
2019-02-16T08:22:18.585Z,99.99
2019-02-16T08:23:18.500Z,99.99
2019-02-16T08:24:18.417Z,99.99
2019-02-16T08:25:18.335Z,99.99
2019-02-16T08:26:18.251Z,99.99
2019-02-16T08:27:18.174Z,99.99
2019-02-16T08:28:18.085Z,99.99
2019-02-16T08:29:18.105Z,99.99
2019-02-16T08:30:17.919Z,99.99
2019-02-16T08:31:17.839Z,99.99
2019-02-16T08:32:17.753Z,99.99
2019-02-16T08:33:17.670Z,99.99
2019-02-16T08:34:17.588Z,99.99
2019-02-16T08:35:17.505Z,99.99
2019-02-16T08:36:17.423Z,99.99
2019-02-16T08:37:17.339Z,99.99
2019-02-16T08:38:17.256Z,99.99
2019-02-16T08:39:17.174Z,99.99
2019-02-16T08:40:17.092Z,99.99
2019-02-16T08:41:17.008Z,99.99
2019-02-16T08:42:16.927Z,99.99
2019-02-16T08:43:16.845Z,99.99
2019-02-16T08:44:16.761Z,99.99
2019-02-16T08:45:16.680Z,99.99
2019-02-16T08:46:16.598Z,99.99
2019-02-16T08:47:16.516Z,99.99
2019-02-16T08:48:16.437Z,99.99
2019-02-16T08:49:16.351Z,99.99
2019-02-16T08:50:16.270Z,99.99
2019-02-16T08:51:16.188Z,99.99
2019-02-16T08:52:16.110Z,99.99
2019-02-16T08:53:16.026Z,99.99
2019-02-16T08:54:15.949Z,99.99
2019-02-16T08:55:15.860Z,99.99
2019-02-16T08:56:15.778Z,99.99
2019-02-16T08:57:15.697Z,99.99
2019-02-16T08:58:15.615Z,99.99
2019-02-16T08:59:15.534Z,99.99
2019-02-16T09:00:15.453Z,99.99
2019-02-16T09:01:15.370Z,99.99
2019-02-16T09:02:15.289Z,99.99
2019-02-16T09:03:15.209Z,99.99
2019-02-16T09:04:15.128Z,99.99
2019-02-16T09:05:15.047Z,99.99
2019-02-16T09:06:14.965Z,99.99
2019-02-16T09:07:14.886Z,99.99
2019-02-16T09:08:14.804Z,99.99
2019-02-16T09:09:14.722Z,99.99
2019-02-16T09:10:14.643Z,99.99
2019-02-16T09:11:14.564Z,99.99
2019-02-16T09:12:14.483Z,99.99
2019-02-16T09:13:14.404Z,99.99
2019-02-16T09:14:14.322Z,98.97
2019-02-16T09:15:14.244Z,96.41
2019-02-16T09:16:14.162Z,96.55
2019-02-16T09:17:14.082Z,96.55
2019-02-16T09:18:14.003Z,97.60
2019-02-16T09:19:13.923Z,95.27
2019-02-16T09:20:13.844Z,96.41
2019-02-16T09:21:15.064Z,92.36
2019-02-16T09:22:13.725Z,90.18
2019-02-16T09:23:13.606Z,89.47
2019-02-16T09:24:13.526Z,88.70
2019-02-16T09:25:13.448Z,88.75
2019-02-16T09:26:13.369Z,87.79
2019-02-16T09:27:13.292Z,85.60
2019-02-16T09:28:13.212Z,86.84
2019-02-16T09:29:13.133Z,88.93
2019-02-16T09:30:13.060Z,88.79
2019-02-16T09:31:12.978Z,88.89
2019-02-16T09:32:13.263Z,88.23
2019-02-16T09:33:12.821Z,88.32
2019-02-16T09:34:12.771Z,88.75
2019-02-16T09:35:12.665Z,90.37
2019-02-16T09:36:12.587Z,88.66
2019-02-16T09:37:12.508Z,88.18
2019-02-16T09:38:12.430Z,89.70
2019-02-16T09:39:12.352Z,90.18
2019-02-16T09:40:12.374Z,90.84
2019-02-16T09:41:12.195Z,90.37
2019-02-16T09:42:12.117Z,90.70
2019-02-16T09:43:12.045Z,90.37
2019-02-16T09:44:11.960Z,89.61
2019-02-16T09:45:11.885Z,89.32
2019-02-16T09:46:11.804Z,89.56
2019-02-16T09:47:11.727Z,89.75
2019-02-16T09:48:11.648Z,87.85
2019-02-16T09:49:11.570Z,87.18
2019-02-16T09:50:11.493Z,84.94
2019-02-16T09:51:11.415Z,83.32
2019-02-16T09:52:11.337Z,82.46
2019-02-16T09:53:11.262Z,81.89
2019-02-16T09:54:11.183Z,81.41
2019-02-16T09:55:11.105Z,80.84
2019-02-16T09:56:11.029Z,81.60
2019-02-16T09:57:10.952Z,80.12
2019-02-16T09:58:10.875Z,79.17
2019-02-16T09:59:10.797Z,78.88
2019-02-16T10:00:10.720Z,78.69
2019-02-16T10:01:10.642Z,78.06
2019-02-16T10:02:10.564Z,77.97
2019-02-16T10:03:10.489Z,76.35
2019-02-16T10:04:10.413Z,76.06
2019-02-16T10:05:10.337Z,76.92
2019-02-16T10:06:10.258Z,76.29
2019-02-16T10:07:10.183Z,75.01
2019-02-16T10:08:10.107Z,76.54
2019-02-16T10:09:10.029Z,76.67
2019-02-16T10:10:09.953Z,76.67
2019-02-16T10:11:09.879Z,75.43
2019-02-16T10:12:09.951Z,73.43
2019-02-16T10:13:09.725Z,72.96
2019-02-16T10:14:09.651Z,73.72
2019-02-16T10:15:09.573Z,73.33
2019-02-16T10:16:09.497Z,73.05
2019-02-16T10:17:10.035Z,72.96
2019-02-16T10:18:09.347Z,71.62
2019-02-16T10:19:09.269Z,71.33
2019-02-16T10:20:09.192Z,72.80
2019-02-16T10:21:09.116Z,71.94
2019-02-16T10:22:09.040Z,71.66
2019-02-16T10:23:08.966Z,71.94
2019-02-16T10:24:17.324Z,71.84
2019-02-16T10:25:08.813Z,71.94
2019-02-16T10:26:08.737Z,72.42
2019-02-16T10:27:08.664Z,71.84
2019-02-16T10:28:08.587Z,71.84
2019-02-16T10:29:08.510Z,71.88
2019-02-16T10:30:08.436Z,70.92
2019-02-16T10:31:08.363Z,70.92
2019-02-16T10:32:08.386Z,70.07
2019-02-16T10:33:08.209Z,70.92
2019-02-16T10:34:08.134Z,70.89
2019-02-16T10:35:08.059Z,71.18
2019-02-16T10:36:07.984Z,71.84
2019-02-16T10:37:07.909Z,71.66
2019-02-16T10:38:07.833Z,72.32
2019-02-16T10:39:07.759Z,73.14
2019-02-16T10:40:07.684Z,73.14
2019-02-16T10:41:07.608Z,73.52
2019-02-16T10:42:07.532Z,72.96
2019-02-16T10:43:07.458Z,72.13
2019-02-16T10:44:07.380Z,71.02
2019-02-16T10:45:07.306Z,70.29
2019-02-16T10:46:07.230Z,69.24
2019-02-16T10:47:07.155Z,68.19
2019-02-16T10:48:07.083Z,67.91
2019-02-16T10:49:07.134Z,67.65
2019-02-16T10:50:06.930Z,66.41
2019-02-16T10:51:06.856Z,65.87
2019-02-16T10:52:06.783Z,64.82
2019-02-16T10:53:06.707Z,63.67
2019-02-16T10:54:06.635Z,64.34
2019-02-16T10:55:06.560Z,65.58
2019-02-16T10:56:06.487Z,65.68
2019-02-16T10:57:06.412Z,63.96
2019-02-16T10:58:06.340Z,63.57
2019-02-16T10:59:06.266Z,63.76
2019-02-16T11:00:06.196Z,63.57
2019-02-16T11:01:06.119Z,62.17
2019-02-16T11:02:06.045Z,60.55
2019-02-16T11:03:05.973Z,60.55
2019-02-16T11:04:05.905Z,60.26
2019-02-16T11:05:05.829Z,60.45
2019-02-16T11:06:05.754Z,60.99
2019-02-16T11:07:05.684Z,61.22
2019-02-16T11:08:05.611Z,61.88
2019-02-16T11:09:05.538Z,61.05
2019-02-16T11:10:05.466Z,61.34
2019-02-16T11:11:05.397Z,60.67
2019-02-16T11:12:05.321Z,60.35
2019-02-16T11:13:05.247Z,60.26
2019-02-16T11:14:05.175Z,59.91
2019-02-16T11:15:05.103Z,58.73
2019-02-16T11:16:05.031Z,58.25
2019-02-16T11:17:04.958Z,58.76
2019-02-16T11:18:04.887Z,58.28
2019-02-16T11:19:04.816Z,57.68
2019-02-16T11:20:04.742Z,57.23
2019-02-16T11:21:04.672Z,57.04
2019-02-16T11:22:04.640Z,56.75
2019-02-16T11:23:04.527Z,56.94
2019-02-16T11:24:04.456Z,56.77
2019-02-16T11:25:04.437Z,57.09
2019-02-16T11:26:04.311Z,55.91
2019-02-16T11:27:04.242Z,56.01
2019-02-16T11:28:04.168Z,55.73
2019-02-16T11:29:04.094Z,55.82
2019-02-16T11:30:04.131Z,56.10
2019-02-16T11:31:03.954Z,55.85
2019-02-16T11:32:03.882Z,55.65
2019-02-16T11:33:03.812Z,55.75
2019-02-16T11:34:03.745Z,54.12
2019-02-16T11:35:03.668Z,54.67
2019-02-16T11:36:03.598Z,55.41
2019-02-16T11:37:03.525Z,55.24
2019-02-16T11:38:03.455Z,55.73
2019-02-16T11:39:03.383Z,55.63
2019-02-16T11:40:03.315Z,55.82
2019-02-16T11:41:03.242Z,56.68
2019-02-16T11:42:03.225Z,56.81
2019-02-16T11:43:03.099Z,55.56
2019-02-16T11:44:03.028Z,56.64
2019-02-16T11:45:02.958Z,54.63
2019-02-16T11:46:02.886Z,54.53
2019-02-16T11:47:02.819Z,53.60
2019-02-16T11:48:02.745Z,52.67
2019-02-16T11:49:02.675Z,52.89
2019-02-16T11:50:02.603Z,52.02
2019-02-16T11:51:02.538Z,49.82
2019-02-16T11:52:02.465Z,49.93
2019-02-16T11:53:02.391Z,48.97
2019-02-16T11:54:02.323Z,49.12
2019-02-16T11:55:02.253Z,48.61
2019-02-16T11:56:02.189Z,46.98
2019-02-16T11:57:02.115Z,47.00
2019-02-16T11:58:02.046Z,46.81
2019-02-16T11:59:02.828Z,45.78
2019-02-16T12:00:01.911Z,44.53
2019-02-16T12:01:01.841Z,44.45
2019-02-16T12:02:01.779Z,44.28
2019-02-16T12:03:01.705Z,43.51
2019-02-16T12:04:01.640Z,42.88
2019-02-16T12:05:01.578Z,43.48
2019-02-16T12:06:01.506Z,41.27
2019-02-16T12:07:01.437Z,40.39
2019-02-16T12:08:01.369Z,41.27
2019-02-16T12:09:01.302Z,41.17
2019-02-16T12:10:01.236Z,41.14
2019-02-16T12:11:01.170Z,41.05
2019-02-16T12:12:01.104Z,40.86
2019-02-16T12:13:01.037Z,41.34
2019-02-16T12:14:00.972Z,40.66
2019-02-16T12:15:00.907Z,39.87
2019-02-16T12:16:00.844Z,40.74
2019-02-16T12:17:00.776Z,42.32
2019-02-16T12:18:00.713Z,40.19
2019-02-16T12:19:00.648Z,40.97
2019-02-16T12:20:00.581Z,40.63
2019-02-16T12:21:00.518Z,40.03
2019-02-16T12:22:00.454Z,41.02
2019-02-16T12:23:00.391Z,38.91
2019-02-16T12:24:00.325Z,37.33
2019-02-16T12:25:05.637Z,38.46
2019-02-16T12:26:00.195Z,39.84
2019-02-16T12:27:00.131Z,40.42
2019-02-16T12:28:00.069Z,38.66
2019-02-16T12:29:00.005Z,38.74
2019-02-16T12:29:59.937Z,40.37
2019-02-16T12:30:59.875Z,40.57
2019-02-16T12:31:59.809Z,40.28
2019-02-16T12:32:59.745Z,39.87
2019-02-16T12:33:59.681Z,40.94
2019-02-16T12:34:59.620Z,40.36
2019-02-16T12:35:59.552Z,40.84
2019-02-16T12:36:59.488Z,41.53
2019-02-16T12:37:59.422Z,41.48
2019-02-16T12:39:04.833Z,39.24
2019-02-16T12:39:59.296Z,39.86
2019-02-16T12:40:59.230Z,40.81
2019-02-16T12:41:59.166Z,41.01
2019-02-16T12:42:59.201Z,40.68
2019-02-16T12:43:59.037Z,41.05
2019-02-16T12:44:58.970Z,42.08
2019-02-16T12:45:58.907Z,42.87
2019-02-16T12:46:58.841Z,43.84
2019-02-16T12:47:58.778Z,43.07
2019-02-16T12:48:58.711Z,42.58
2019-02-16T12:49:58.646Z,42.87
2019-02-16T12:50:59.542Z,43.35